<?xml version="1.0" encoding="utf-8"?>
<gpx creator="Wikiloc - https://www.wikiloc.com; modified by GPX Track Cleaner from GPX Viewer plugin (WordPress) " version="1.1" xmlns="http://www.topografix.com/GPX/1/1" xmlns:xsi="http://www.w3.org/2001/XMLSchema-instance" xsi:schemaLocation="http://www.topografix.com/GPX/1/1 http://www.topografix.com/GPX/1/1/gpx.xsd">

	<trk>
		<name>Odalengo Grande, sentiero 'All'ombra dei grandi boschi' e Bi...</name>
		<cmt> distance: 8.8 km, up: 331 m, down: 385 m</cmt>
		<desc>1 track segments, original data of track points</desc>
		<trkseg>
			<trkpt lat="45.109454" lon="8.16688">
				<ele>414.3</ele>
				<time>2020-09-29T14:29:26Z</time>
			</trkpt>
			<trkpt lat="45.109418" lon="8.166582">
				<ele>397.6</ele>
				<time>2020-09-29T14:30:07Z</time>
			</trkpt>
			<trkpt lat="45.10975" lon="8.166229">
				<ele>392.1</ele>
				<time>2020-09-29T14:30:30Z</time>
			</trkpt>
			<trkpt lat="45.110001" lon="8.166166">
				<ele>384.8</ele>
				<time>2020-09-29T14:30:57Z</time>
			</trkpt>
			<trkpt lat="45.110684" lon="8.166464">
				<ele>373</ele>
				<time>2020-09-29T14:31:50Z</time>
			</trkpt>
			<trkpt lat="45.111286" lon="8.166318">
				<ele>366</ele>
				<time>2020-09-29T14:32:35Z</time>
			</trkpt>
			<trkpt lat="45.111923" lon="8.165786">
				<ele>357.8</ele>
				<time>2020-09-29T14:33:30Z</time>
			</trkpt>
			<trkpt lat="45.112671" lon="8.165516">
				<ele>349.3</ele>
				<time>2020-09-29T14:34:32Z</time>
			</trkpt>
			<trkpt lat="45.1133" lon="8.164831">
				<ele>344</ele>
				<time>2020-09-29T14:35:22Z</time>
			</trkpt>
			<trkpt lat="45.113452" lon="8.164873">
				<ele>342.9</ele>
				<time>2020-09-29T14:35:32Z</time>
			</trkpt>
			<trkpt lat="45.114529" lon="8.166375">
				<ele>344.5</ele>
				<time>2020-09-29T14:37:17Z</time>
			</trkpt>
			<trkpt lat="45.114487" lon="8.166752">
				<ele>345.3</ele>
				<time>2020-09-29T14:37:37Z</time>
			</trkpt>
			<trkpt lat="45.114688" lon="8.167507">
				<ele>348.8</ele>
				<time>2020-09-29T14:38:20Z</time>
			</trkpt>
			<trkpt lat="45.115358" lon="8.169007">
				<ele>352.6</ele>
				<time>2020-09-29T14:39:51Z</time>
			</trkpt>
			<trkpt lat="45.115755" lon="8.169043">
				<ele>347.7</ele>
				<time>2020-09-29T14:40:36Z</time>
			</trkpt>
			<trkpt lat="45.116277" lon="8.169693">
				<ele>341.2</ele>
				<time>2020-09-29T14:41:31Z</time>
			</trkpt>
			<trkpt lat="45.117259" lon="8.169749">
				<ele>339.4</ele>
				<time>2020-09-29T14:42:44Z</time>
			</trkpt>
			<trkpt lat="45.1177" lon="8.169194">
				<ele>335.9</ele>
				<time>2020-09-29T14:43:29Z</time>
			</trkpt>
			<trkpt lat="45.118419" lon="8.16866">
				<ele>317.2</ele>
				<time>2020-09-29T14:44:49Z</time>
			</trkpt>
			<trkpt lat="45.119385" lon="8.167">
				<ele>293.4</ele>
				<time>2020-09-29T14:46:50Z</time>
			</trkpt>
			<trkpt lat="45.120162" lon="8.166046">
				<ele>282.1</ele>
				<time>2020-09-29T14:48:16Z</time>
			</trkpt>
			<trkpt lat="45.120448" lon="8.165155">
				<ele>268.2</ele>
				<time>2020-09-29T14:49:12Z</time>
			</trkpt>
			<trkpt lat="45.120434" lon="8.164479">
				<ele>257.3</ele>
				<time>2020-09-29T14:49:59Z</time>
			</trkpt>
			<trkpt lat="45.120748" lon="8.16439">
				<ele>253.7</ele>
				<time>2020-09-29T14:50:24Z</time>
			</trkpt>
			<trkpt lat="45.121428" lon="8.164532">
				<ele>246.5</ele>
				<time>2020-09-29T14:51:16Z</time>
			</trkpt>
			<trkpt lat="45.122142" lon="8.164206">
				<ele>236.2</ele>
				<time>2020-09-29T14:52:18Z</time>
			</trkpt>
			<trkpt lat="45.122332" lon="8.163932">
				<ele>229.8</ele>
				<time>2020-09-29T14:52:41Z</time>
			</trkpt>
			<trkpt lat="45.123251" lon="8.164922">
				<ele>217.1</ele>
				<time>2020-09-29T14:54:22Z</time>
			</trkpt>
			<trkpt lat="45.123495" lon="8.164419">
				<ele>219.1</ele>
				<time>2020-09-29T14:54:55Z</time>
			</trkpt>
			<trkpt lat="45.123783" lon="8.163009">
				<ele>229.7</ele>
				<time>2020-09-29T14:56:24Z</time>
			</trkpt>
			<trkpt lat="45.123616" lon="8.162423">
				<ele>235.1</ele>
				<time>2020-09-29T14:57:05Z</time>
			</trkpt>
			<trkpt lat="45.123717" lon="8.162106">
				<ele>239.4</ele>
				<time>2020-09-29T14:57:34Z</time>
			</trkpt>
			<trkpt lat="45.12401" lon="8.161729">
				<ele>242</ele>
				<time>2020-09-29T14:58:09Z</time>
			</trkpt>
			<trkpt lat="45.124746" lon="8.161331">
				<ele>247.6</ele>
				<time>2020-09-29T14:59:16Z</time>
			</trkpt>
			<trkpt lat="45.125165" lon="8.161353">
				<ele>255.3</ele>
				<time>2020-09-29T14:59:57Z</time>
			</trkpt>
			<trkpt lat="45.126033" lon="8.160501">
				<ele>263.5</ele>
				<time>2020-09-29T15:01:29Z</time>
			</trkpt>
			<trkpt lat="45.126334" lon="8.159644">
				<ele>276.9</ele>
				<time>2020-09-29T15:02:41Z</time>
			</trkpt>
			<trkpt lat="45.126027" lon="8.159265">
				<ele>283.6</ele>
				<time>2020-09-29T15:03:30Z</time>
			</trkpt>
			<trkpt lat="45.127158" lon="8.15828">
				<ele>301.9</ele>
				<time>2020-09-29T15:05:52Z</time>
			</trkpt>
			<trkpt lat="45.126596" lon="8.156009">
				<ele>300.3</ele>
				<time>2020-09-29T15:08:09Z</time>
			</trkpt>
			<trkpt lat="45.125712" lon="8.15519">
				<ele>292.5</ele>
				<time>2020-09-29T15:09:31Z</time>
			</trkpt>
			<trkpt lat="45.124947" lon="8.15497">
				<ele>288.9</ele>
				<time>2020-09-29T15:10:36Z</time>
			</trkpt>
			<trkpt lat="45.123535" lon="8.153709">
				<ele>290.4</ele>
				<time>2020-09-29T15:12:50Z</time>
			</trkpt>
			<trkpt lat="45.123095" lon="8.15237">
				<ele>290.5</ele>
				<time>2020-09-29T15:14:19Z</time>
			</trkpt>
			<trkpt lat="45.122715" lon="8.152058">
				<ele>285</ele>
				<time>2020-09-29T15:14:54Z</time>
			</trkpt>
			<trkpt lat="45.121579" lon="8.15165">
				<ele>275.9</ele>
				<time>2020-09-29T15:16:27Z</time>
			</trkpt>
			<trkpt lat="45.120662" lon="8.151549">
				<ele>278.7</ele>
				<time>2020-09-29T15:17:40Z</time>
			</trkpt>
			<trkpt lat="45.120116" lon="8.15127">
				<ele>285.2</ele>
				<time>2020-09-29T15:18:36Z</time>
			</trkpt>
			<trkpt lat="45.120106" lon="8.150974">
				<ele>282</ele>
				<time>2020-09-29T15:18:56Z</time>
			</trkpt>
			<trkpt lat="45.1199" lon="8.150913">
				<ele>280.1</ele>
				<time>2020-09-29T15:19:15Z</time>
			</trkpt>
			<trkpt lat="45.119886" lon="8.150603">
				<ele>279.1</ele>
				<time>2020-09-29T15:19:31Z</time>
			</trkpt>
			<trkpt lat="45.119114" lon="8.149012">
				<ele>289.4</ele>
				<time>2020-09-29T15:21:36Z</time>
			</trkpt>
			<trkpt lat="45.118471" lon="8.148607">
				<ele>293.8</ele>
				<time>2020-09-29T15:22:39Z</time>
			</trkpt>
			<trkpt lat="45.118379" lon="8.147054">
				<ele>295.1</ele>
				<time>2020-09-29T15:24:10Z</time>
			</trkpt>
			<trkpt lat="45.117587" lon="8.146904">
				<ele>291.8</ele>
				<time>2020-09-29T15:25:16Z</time>
			</trkpt>
			<trkpt lat="45.117353" lon="8.14623">
				<ele>292.5</ele>
				<time>2020-09-29T15:25:58Z</time>
			</trkpt>
			<trkpt lat="45.116751" lon="8.146189">
				<ele>295.9</ele>
				<time>2020-09-29T15:26:47Z</time>
			</trkpt>
			<trkpt lat="45.116095" lon="8.146659">
				<ele>299</ele>
				<time>2020-09-29T15:27:44Z</time>
			</trkpt>
			<trkpt lat="45.115247" lon="8.146707">
				<ele>305.7</ele>
				<time>2020-09-29T15:28:53Z</time>
			</trkpt>
			<trkpt lat="45.115535" lon="8.147764">
				<ele>320.6</ele>
				<time>2020-09-29T15:30:09Z</time>
			</trkpt>
			<trkpt lat="45.116427" lon="8.148425">
				<ele>330.3</ele>
				<time>2020-09-29T15:31:29Z</time>
			</trkpt>
			<trkpt lat="45.117351" lon="8.149439">
				<ele>347</ele>
				<time>2020-09-29T15:33:08Z</time>
			</trkpt>
			<trkpt lat="45.116812" lon="8.151517">
				<ele>351.7</ele>
				<time>2020-09-29T15:39:56Z</time>
			</trkpt>
			<trkpt lat="45.117005" lon="8.1539">
				<ele>332.6</ele>
				<time>2020-09-29T15:42:08Z</time>
			</trkpt>
			<trkpt lat="45.116964" lon="8.15509">
				<ele>317.3</ele>
				<time>2020-09-29T15:43:15Z</time>
			</trkpt>
			<trkpt lat="45.116771" lon="8.155617">
				<ele>309.6</ele>
				<time>2020-09-29T15:43:45Z</time>
			</trkpt>
			<trkpt lat="45.116113" lon="8.156343">
				<ele>293.8</ele>
				<time>2020-09-29T15:44:58Z</time>
			</trkpt>
			<trkpt lat="45.115989" lon="8.157392">
				<ele>297.1</ele>
				<time>2020-09-29T15:46:04Z</time>
			</trkpt>
			<trkpt lat="45.115623" lon="8.158198">
				<ele>301.5</ele>
				<time>2020-09-29T15:46:53Z</time>
			</trkpt>
			<trkpt lat="45.115227" lon="8.158395">
				<ele>300.2</ele>
				<time>2020-09-29T15:47:25Z</time>
			</trkpt>
			<trkpt lat="45.114054" lon="8.15841">
				<ele>299.5</ele>
				<time>2020-09-29T15:48:45Z</time>
			</trkpt>
			<trkpt lat="45.113477" lon="8.157633">
				<ele>299.3</ele>
				<time>2020-09-29T15:49:43Z</time>
			</trkpt>
			<trkpt lat="45.112805" lon="8.15758">
				<ele>296.5</ele>
				<time>2020-09-29T15:50:33Z</time>
			</trkpt>
			<trkpt lat="45.112522" lon="8.157847">
				<ele>294.1</ele>
				<time>2020-09-29T15:51:00Z</time>
			</trkpt>
			<trkpt lat="45.112114" lon="8.158759">
				<ele>287.4</ele>
				<time>2020-09-29T15:51:56Z</time>
			</trkpt>
			<trkpt lat="45.11198" lon="8.159517">
				<ele>273.5</ele>
				<time>2020-09-29T15:52:52Z</time>
			</trkpt>
			<trkpt lat="45.111444" lon="8.159923">
				<ele>262.1</ele>
				<time>2020-09-29T15:53:41Z</time>
			</trkpt>
			<trkpt lat="45.111215" lon="8.159877">
				<ele>258.3</ele>
				<time>2020-09-29T15:54:00Z</time>
			</trkpt>
			<trkpt lat="45.111059" lon="8.159648">
				<ele>255.4</ele>
				<time>2020-09-29T15:55:16Z</time>
			</trkpt>
			<trkpt lat="45.111046" lon="8.159053">
				<ele>250.1</ele>
				<time>2020-09-29T15:55:48Z</time>
			</trkpt>
			<trkpt lat="45.110864" lon="8.158658">
				<ele>248</ele>
				<time>2020-09-29T15:56:14Z</time>
			</trkpt>
			<trkpt lat="45.110468" lon="8.158314">
				<ele>239.5</ele>
				<time>2020-09-29T15:56:55Z</time>
			</trkpt>
			<trkpt lat="45.109898" lon="8.158205">
				<ele>230.7</ele>
				<time>2020-09-29T15:57:37Z</time>
			</trkpt>
			<trkpt lat="45.109386" lon="8.158607">
				<ele>228.7</ele>
				<time>2020-09-29T15:58:20Z</time>
			</trkpt>
			<trkpt lat="45.108408" lon="8.158965">
				<ele>229.2</ele>
				<time>2020-09-29T15:59:34Z</time>
			</trkpt>
			<trkpt lat="45.107688" lon="8.159702">
				<ele>228.3</ele>
				<time>2020-09-29T16:00:39Z</time>
			</trkpt>
			<trkpt lat="45.105547" lon="8.161246">
				<ele>219.2</ele>
				<time>2020-09-29T16:03:30Z</time>
			</trkpt>
			<trkpt lat="45.105123" lon="8.161927">
				<ele>219.6</ele>
				<time>2020-09-29T16:04:17Z</time>
			</trkpt>
			<trkpt lat="45.104435" lon="8.162216">
				<ele>222.6</ele>
				<time>2020-09-29T16:05:13Z</time>
			</trkpt>
			<trkpt lat="45.104644" lon="8.162856">
				<ele>230.6</ele>
				<time>2020-09-29T16:06:06Z</time>
			</trkpt>
			<trkpt lat="45.105023" lon="8.166112">
				<ele>252.4</ele>
				<time>2020-09-29T16:09:36Z</time>
			</trkpt>
			<trkpt lat="45.1049" lon="8.167829">
				<ele>266</ele>
				<time>2020-09-29T16:11:46Z</time>
			</trkpt>
			<trkpt lat="45.105221" lon="8.168857">
				<ele>281.4</ele>
				<time>2020-09-29T16:13:32Z</time>
			</trkpt>
			<trkpt lat="45.105639" lon="8.169478">
				<ele>295.1</ele>
				<time>2020-09-29T16:14:52Z</time>
			</trkpt>
			<trkpt lat="45.105784" lon="8.169975">
				<ele>303.4</ele>
				<time>2020-09-29T16:15:42Z</time>
			</trkpt>
			<trkpt lat="45.105121" lon="8.170763">
				<ele>317.6</ele>
				<time>2020-09-29T16:17:27Z</time>
			</trkpt>
			<trkpt lat="45.106665" lon="8.170172">
				<ele>326.6</ele>
				<time>2020-09-29T16:19:28Z</time>
			</trkpt>
			<trkpt lat="45.108053" lon="8.16905">
				<ele>340.9</ele>
				<time>2020-09-29T16:21:28Z</time>
			</trkpt>
			<trkpt lat="45.10936" lon="8.167453">
				<ele>357.5</ele>
				<time>2020-09-29T16:23:39Z</time>
			</trkpt>
			<trkpt lat="45.109504" lon="8.166775">
				<ele>360.9</ele>
				<time>2020-09-29T16:24:16Z</time>
			</trkpt>
		</trkseg>
	</trk>
</gpx>
